createdAt,value
2023-01-09T00:00:43.203Z,1.10
2023-01-09T00:03:11.680Z,1.50
2023-01-09T00:05:39.650Z,1.00
2023-01-09T00:08:09.150Z,1.00
2023-01-09T00:10:41.679Z,1.33
2023-01-09T00:13:18.497Z,1.10
2023-01-09T00:15:49.379Z,1.00
2023-01-09T00:18:18.724Z,0.70
2023-01-09T00:20:46.735Z,0.90
2023-01-09T00:23:15.180Z,0.60
2023-01-09T00:25:43.779Z,1.20
2023-01-09T00:28:19.347Z,0.80
2023-01-09T00:30:57.684Z,0.80
2023-01-09T00:33:29.559Z,0.90
2023-01-09T00:36:04.133Z,1.00
2023-01-09T00:38:34.921Z,0.70
2023-01-09T00:41:04.762Z,0.50
2023-01-09T00:43:38.141Z,0.80
2023-01-09T00:46:08.939Z,0.70
2023-01-09T00:48:39.637Z,0.80
2023-01-09T00:51:09.461Z,0.67
2023-01-09T00:53:40.299Z,1.83
2023-01-09T00:56:13.047Z,0.70
2023-01-09T00:58:42.899Z,0.70
2023-01-09T01:01:14.509Z,0.70
2023-01-09T01:03:43.697Z,0.70
2023-01-09T01:06:30.320Z,0.67
2023-01-09T01:08:58.363Z,0.53
2023-01-09T01:11:26.747Z,0.70
2023-01-09T01:14:04.702Z,1.07
2023-01-09T01:16:34.345Z,0.70
2023-01-09T01:19:02.672Z,0.73
2023-01-09T01:21:31.178Z,0.70
2023-01-09T01:23:59.166Z,0.60
2023-01-09T01:26:27.639Z,0.60
2023-01-09T01:28:57.026Z,0.60
2023-01-09T01:31:25.063Z,0.50
2023-01-09T01:33:54.062Z,0.50
2023-01-09T01:36:22.170Z,0.70
2023-01-09T01:38:50.672Z,0.50
2023-01-09T01:41:29.890Z,0.60
2023-01-09T01:44:02.329Z,0.50
2023-01-09T01:46:34.864Z,0.60
2023-01-09T01:49:06.491Z,0.50
2023-01-09T01:51:38.785Z,0.60
2023-01-09T01:54:12.142Z,0.50
2023-01-09T01:56:45.633Z,0.60
2023-01-09T01:59:22.244Z,0.70
2023-01-09T02:01:53.049Z,0.60
2023-01-09T02:04:22.755Z,0.63
2023-01-09T02:06:56.548Z,0.90
2023-01-09T02:09:31.152Z,0.83
2023-01-09T02:12:04.627Z,1.00
2023-01-09T02:14:45.164Z,0.87
2023-01-09T02:17:27.488Z,0.80
2023-01-09T02:20:28.582Z,0.60
2023-01-09T02:23:11.473Z,1.93
2023-01-09T02:26:14.156Z,0.70
2023-01-09T02:29:03.797Z,0.67
2023-01-09T02:31:43.606Z,0.67
2023-01-09T02:34:21.267Z,0.63
2023-01-09T02:37:00.433Z,0.60
2023-01-09T02:39:36.714Z,0.80
2023-01-09T02:42:12.314Z,0.90
2023-01-09T02:44:44.417Z,0.90
2023-01-09T02:47:47.712Z,0.60
2023-01-09T02:50:30.344Z,0.80
2023-01-09T02:53:36.989Z,0.90
2023-01-09T02:56:29.591Z,0.70
2023-01-09T02:59:21.179Z,0.63
2023-01-09T03:02:04.349Z,0.87
2023-01-09T03:04:44.994Z,0.80
2023-01-09T03:07:20.302Z,0.67
2023-01-09T03:09:51.883Z,0.80
2023-01-09T03:12:24.573Z,0.80
2023-01-09T03:15:02.059Z,1.20
2023-01-09T03:17:38.251Z,0.80
2023-01-09T03:20:14.150Z,0.83
2023-01-09T03:22:53.678Z,1.10
2023-01-09T03:25:25.287Z,1.20
2023-01-09T03:27:57.446Z,0.70
2023-01-09T03:30:29.344Z,0.93
2023-01-09T03:33:00.087Z,0.90
2023-01-09T03:35:30.666Z,1.00
2023-01-09T03:38:02.879Z,1.00
2023-01-09T03:40:34.036Z,1.10
2023-01-09T03:43:02.167Z,1.10
2023-01-09T03:45:30.368Z,1.23
2023-01-09T03:48:01.866Z,1.17
2023-01-09T03:50:33.829Z,1.30
2023-01-09T03:53:02.159Z,1.30
2023-01-09T03:55:30.188Z,1.30
2023-01-09T03:57:58.643Z,1.60
2023-01-09T04:00:28.768Z,1.30
2023-01-09T04:02:57.891Z,1.70
2023-01-09T04:05:25.938Z,1.83
2023-01-09T04:07:55.516Z,1.53
2023-01-09T04:10:31.669Z,1.73
2023-01-09T04:13:07.572Z,1.47
2023-01-09T04:15:38.670Z,1.80
2023-01-09T04:18:16.305Z,1.67
2023-01-09T04:20:50.777Z,1.00
2023-01-09T04:23:21.059Z,1.50
2023-01-09T04:25:49.648Z,2.13
2023-01-09T04:28:17.820Z,1.20
2023-01-09T04:30:46.080Z,1.07
2023-01-09T04:33:17.929Z,1.43
2023-01-09T04:35:46.864Z,1.40
2023-01-09T04:38:15.636Z,1.13
2023-01-09T04:40:45.536Z,1.50
2023-01-09T04:43:13.583Z,1.50
2023-01-09T04:45:42.069Z,1.87
2023-01-09T04:48:11.100Z,1.70
2023-01-09T04:50:39.079Z,1.60
2023-01-09T04:53:09.835Z,1.50
2023-01-09T04:55:41.584Z,2.00
2023-01-09T04:58:13.498Z,1.50
2023-01-09T05:00:42.427Z,1.33
2023-01-09T05:03:11.781Z,1.50
2023-01-09T05:05:40.206Z,1.47
2023-01-09T05:08:08.373Z,2.00
2023-01-09T05:10:38.861Z,1.30
2023-01-09T05:13:10.247Z,1.23
2023-01-09T05:15:39.811Z,2.07
2023-01-09T05:18:08.288Z,1.40
2023-01-09T05:20:39.828Z,1.50
2023-01-09T05:23:08.020Z,2.20
2023-01-09T05:25:36.032Z,1.70
2023-01-09T05:28:07.290Z,1.50
2023-01-09T05:30:37.153Z,2.50
2023-01-09T05:33:08.691Z,1.90
2023-01-09T05:35:37.130Z,1.67
2023-01-09T05:38:06.274Z,2.20
2023-01-09T05:40:40.445Z,1.73
2023-01-09T05:43:16.455Z,1.90
2023-01-09T05:45:45.249Z,1.50
2023-01-09T05:48:14.613Z,1.93
2023-01-09T05:50:43.642Z,2.50
2023-01-09T05:53:11.656Z,1.70
2023-01-09T05:55:40.169Z,1.83
2023-01-09T05:58:08.639Z,1.60
2023-01-09T06:00:37.017Z,1.40
2023-01-09T06:03:05.291Z,1.10
2023-01-09T06:05:35.872Z,1.30
2023-01-09T06:08:07.199Z,1.00
2023-01-09T06:10:42.760Z,1.10
2023-01-09T06:13:13.795Z,1.50
2023-01-09T06:15:44.158Z,1.13
2023-01-09T06:18:12.805Z,1.57
2023-01-09T06:20:47.143Z,1.63
2023-01-09T06:23:18.035Z,1.30
2023-01-09T06:25:46.875Z,1.10
2023-01-09T06:28:16.229Z,1.33
2023-01-09T06:30:44.264Z,1.20
2023-01-09T06:33:21.853Z,1.83
2023-01-09T06:35:52.101Z,1.40
2023-01-09T06:38:22.588Z,1.20
2023-01-09T06:40:51.213Z,1.77
2023-01-09T06:43:19.945Z,1.67
2023-01-09T06:45:48.518Z,1.30
2023-01-09T06:48:18.962Z,1.13
2023-01-09T06:50:51.644Z,1.27
2023-01-09T06:53:21.635Z,1.70
2023-01-09T06:55:50.783Z,1.30
2023-01-09T06:58:19.091Z,1.30
2023-01-09T07:00:49.258Z,1.10
2023-01-09T07:03:31.966Z,1.67
2023-01-09T07:06:02.351Z,1.70
2023-01-09T07:08:32.219Z,0.93
2023-01-09T07:11:01.143Z,1.40
2023-01-09T07:13:29.204Z,1.50
2023-01-09T07:15:57.848Z,1.53
2023-01-09T07:18:26.833Z,1.40
2023-01-09T07:20:54.910Z,2.27
2023-01-09T07:23:23.740Z,1.07
2023-01-09T07:25:55.692Z,2.07
2023-01-09T07:28:25.772Z,1.00
2023-01-09T07:30:56.501Z,1.00
2023-01-09T07:33:24.558Z,1.27
2023-01-09T07:35:52.558Z,1.37
2023-01-09T07:38:30.924Z,1.13
2023-01-09T07:41:00.275Z,1.00
2023-01-09T07:43:28.872Z,1.00
2023-01-09T07:45:57.133Z,1.73
2023-01-09T07:48:25.192Z,1.13
2023-01-09T07:50:54.156Z,1.33
2023-01-09T07:53:22.264Z,1.10
2023-01-09T07:55:52.903Z,1.23
2023-01-09T07:58:28.105Z,1.10
2023-01-09T08:00:56.252Z,1.13
2023-01-09T08:03:24.440Z,1.40
2023-01-09T08:05:53.456Z,1.13
2023-01-09T08:08:21.499Z,1.50
2023-01-09T08:10:50.971Z,0.97
2023-01-09T08:13:22.587Z,1.30
2023-01-09T08:15:52.197Z,1.50
2023-01-09T08:18:21.275Z,1.73
2023-01-09T08:20:49.622Z,1.70
2023-01-09T08:23:21.306Z,1.10
2023-01-09T08:25:49.468Z,1.10
2023-01-09T08:28:20.278Z,1.30
2023-01-09T08:30:51.521Z,1.40
2023-01-09T08:33:23.528Z,0.90
2023-01-09T08:35:52.349Z,1.23
2023-01-09T08:38:21.916Z,1.33
2023-01-09T08:40:50.410Z,1.47
2023-01-09T08:43:36.586Z,1.57
2023-01-09T08:46:22.243Z,1.10
2023-01-09T08:48:51.817Z,1.33
2023-01-09T08:51:20.026Z,1.10
2023-01-09T08:53:48.005Z,1.10
2023-01-09T08:56:16.057Z,1.17
2023-01-09T08:58:44.925Z,1.10
2023-01-09T09:01:13.558Z,1.20
2023-01-09T09:03:44.043Z,1.23
2023-01-09T09:06:13.428Z,1.43
2023-01-09T09:08:44.999Z,1.03
2023-01-09T09:11:13.496Z,1.30
2023-01-09T09:13:41.677Z,1.63
2023-01-09T09:16:12.593Z,1.57
2023-01-09T09:18:41.387Z,1.20
2023-01-09T09:21:11.583Z,1.80
2023-01-09T09:23:43.980Z,1.37
2023-01-09T09:26:12.143Z,1.40
2023-01-09T09:28:40.141Z,1.33
2023-01-09T09:31:09.207Z,1.83
2023-01-09T09:33:39.525Z,1.70
2023-01-09T09:36:09.174Z,1.40
2023-01-09T09:38:37.282Z,1.27
2023-01-09T09:41:44.355Z,1.70
2023-01-09T09:44:55.871Z,1.30
2023-01-09T09:47:45.768Z,1.47
2023-01-09T09:50:32.923Z,1.23
2023-01-09T09:53:08.695Z,1.33
2023-01-09T09:55:39.935Z,1.27
2023-01-09T09:58:29.673Z,1.30
2023-01-09T10:00:59.819Z,1.57
2023-01-09T10:03:39.206Z,1.40
2023-01-09T10:06:13.890Z,1.17
2023-01-09T10:08:49.581Z,1.57
2023-01-09T10:11:25.415Z,1.10
2023-01-09T10:14:22.784Z,1.30
2023-01-09T10:17:26.933Z,1.30
2023-01-09T10:20:50.722Z,1.50
2023-01-09T10:23:46.607Z,1.40
2023-01-09T10:26:23.116Z,1.30
2023-01-09T10:29:11.942Z,1.40
2023-01-09T10:31:54.206Z,1.70
2023-01-09T10:34:40.490Z,2.10
2023-01-09T10:37:13.763Z,1.80
2023-01-09T10:39:49.710Z,2.57
2023-01-09T10:42:24.829Z,1.97
2023-01-09T10:45:00.542Z,1.40
2023-01-09T10:47:32.740Z,1.77
2023-01-09T10:50:02.609Z,1.60
2023-01-09T10:52:36.100Z,1.60
2023-01-09T10:55:15.349Z,2.23
2023-01-09T10:57:45.693Z,2.93
2023-01-09T11:00:23.341Z,1.80
2023-01-09T11:02:53.708Z,1.30
2023-01-09T11:05:24.369Z,1.67
2023-01-09T11:07:56.342Z,1.80
2023-01-09T11:10:24.618Z,1.00
2023-01-09T11:13:15.081Z,1.80
2023-01-09T11:15:45.110Z,2.03
2023-01-09T11:18:24.592Z,1.73
2023-01-09T11:20:55.753Z,1.47
2023-01-09T11:23:33.174Z,1.57
2023-01-09T11:26:02.933Z,1.87
2023-01-09T11:28:34.267Z,1.63
2023-01-09T11:31:04.065Z,1.70
2023-01-09T11:33:38.087Z,1.43
2023-01-09T11:36:10.801Z,2.00
2023-01-09T11:38:51.669Z,1.20
2023-01-09T11:41:22.387Z,1.53
2023-01-09T11:43:55.561Z,1.63
2023-01-09T11:46:39.654Z,1.73
2023-01-09T11:49:23.506Z,2.00
2023-01-09T11:52:16.816Z,2.13
2023-01-09T11:54:53.561Z,2.07
2023-01-09T11:57:23.899Z,1.80
2023-01-09T11:59:55.833Z,2.20
2023-01-09T12:03:00.317Z,2.80
2023-01-09T12:05:37.776Z,1.90
2023-01-09T12:08:26.944Z,1.50
2023-01-09T12:11:19.701Z,1.80
2023-01-09T12:14:02.779Z,1.70
2023-01-09T12:16:39.218Z,1.80
2023-01-09T12:19:37.712Z,2.23
2023-01-09T12:22:14.998Z,1.73
2023-01-09T12:25:00.601Z,1.73
2023-01-09T12:27:39.205Z,1.50
2023-01-09T12:30:27.166Z,1.57
2023-01-09T12:33:12.932Z,1.47
2023-01-09T12:35:47.197Z,1.60
2023-01-09T12:38:31.281Z,1.43
2023-01-09T12:41:22.752Z,1.83
2023-01-09T12:44:07.207Z,2.00
2023-01-09T12:46:41.756Z,1.40
2023-01-09T12:49:24.566Z,1.80
2023-01-09T12:52:01.269Z,1.60
2023-01-09T12:54:35.648Z,1.77
2023-01-09T12:57:06.933Z,1.97
2023-01-09T12:59:40.234Z,1.60
2023-01-09T13:02:20.900Z,2.30
2023-01-09T13:04:57.783Z,1.60
2023-01-09T13:07:34.434Z,1.43
2023-01-09T13:10:09.967Z,1.60
2023-01-09T13:12:41.097Z,1.10
2023-01-09T13:15:25.950Z,1.83
2023-01-09T13:17:57.820Z,1.60
2023-01-09T13:20:34.181Z,1.60
2023-01-09T13:23:05.119Z,2.10
2023-01-09T13:25:54.079Z,1.70
2023-01-09T13:28:25.272Z,1.50
2023-01-09T13:31:38.146Z,1.40
2023-01-09T13:34:21.454Z,1.53
2023-01-09T13:37:02.109Z,1.80
2023-01-09T13:39:36.643Z,1.33
2023-01-09T13:42:24.720Z,1.77
2023-01-09T13:44:57.441Z,2.10
2023-01-09T13:47:35.573Z,2.17
2023-01-09T13:50:25.972Z,1.80
2023-01-09T13:52:56.727Z,1.60
2023-01-09T13:55:38.368Z,1.37
2023-01-09T13:58:29.230Z,1.47
2023-01-09T14:01:06.136Z,1.60
2023-01-09T14:03:37.295Z,1.53
2023-01-09T14:06:32.785Z,1.30
2023-01-09T14:09:20.412Z,1.40
2023-01-09T14:12:03.629Z,1.43
2023-01-09T14:14:34.152Z,2.20
2023-01-09T14:17:14.359Z,1.80
2023-01-09T14:19:43.303Z,1.60
2023-01-09T14:22:25.897Z,2.13
2023-01-09T14:24:58.528Z,2.10
2023-01-09T14:28:09.237Z,2.93
2023-01-09T14:30:39.234Z,1.93
2023-01-09T14:33:27.276Z,1.50
2023-01-09T14:36:06.779Z,1.77
2023-01-09T14:38:39.930Z,1.90
2023-01-09T14:41:18.545Z,1.70
2023-01-09T14:43:56.333Z,1.73
2023-01-09T14:46:25.428Z,1.90
2023-01-09T14:49:04.640Z,2.57
2023-01-09T14:51:36.685Z,2.37
2023-01-09T14:54:14.871Z,1.90
2023-01-09T14:56:47.303Z,2.10
2023-01-09T14:59:20.005Z,2.00
2023-01-09T15:01:55.294Z,2.40
2023-01-09T15:04:34.856Z,1.80
2023-01-09T15:07:03.971Z,1.90
2023-01-09T15:09:39.047Z,1.93
2023-01-09T15:12:10.932Z,1.53
2023-01-09T15:14:47.341Z,2.10
2023-01-09T15:17:22.421Z,1.93
2023-01-09T15:19:59.665Z,1.87
2023-01-09T15:22:32.821Z,1.97
2023-01-09T15:25:18.135Z,1.90
2023-01-09T15:27:55.503Z,1.70
2023-01-09T15:30:34.483Z,1.90
2023-01-09T15:33:15.770Z,1.57
2023-01-09T15:35:45.776Z,1.80
2023-01-09T15:38:17.469Z,2.10
2023-01-09T15:40:54.492Z,2.10
2023-01-09T15:43:25.038Z,1.97
2023-01-09T15:45:56.039Z,2.40
2023-01-09T15:48:26.942Z,1.77
2023-01-09T15:50:58.547Z,2.17
2023-01-09T15:53:28.827Z,2.07
2023-01-09T15:56:07.187Z,2.10
2023-01-09T15:58:37.930Z,2.47
2023-01-09T16:01:20.052Z,1.70
2023-01-09T16:03:48.373Z,2.23
2023-01-09T16:06:27.110Z,2.13
2023-01-09T16:08:57.862Z,2.67
2023-01-09T16:11:29.729Z,1.90
2023-01-09T16:14:03.052Z,1.73
2023-01-09T16:16:35.617Z,2.30
2023-01-09T16:19:33.958Z,2.93
2023-01-09T16:22:04.486Z,2.20
2023-01-09T16:24:40.947Z,2.13
2023-01-09T16:27:19.311Z,2.70
2023-01-09T16:29:50.860Z,3.03
2023-01-09T16:32:22.531Z,2.73
2023-01-09T16:34:59.824Z,2.30
2023-01-09T16:37:29.877Z,2.80
2023-01-09T16:40:36.001Z,2.63
2023-01-09T16:43:07.547Z,2.90
2023-01-09T16:45:37.804Z,2.87
2023-01-09T16:48:13.866Z,3.00
2023-01-09T16:50:44.418Z,2.43
2023-01-09T16:53:16.613Z,2.47
2023-01-09T16:55:45.970Z,2.80
2023-01-09T16:58:18.921Z,2.50
2023-01-09T17:00:55.482Z,3.53
2023-01-09T17:03:26.911Z,3.23
2023-01-09T17:05:59.153Z,2.90
2023-01-09T17:08:29.575Z,3.17
2023-01-09T17:10:58.620Z,3.03
2023-01-09T17:13:26.988Z,3.50
2023-01-09T17:15:56.348Z,3.90
2023-01-09T17:18:27.264Z,3.60
2023-01-09T17:20:58.699Z,4.10
2023-01-09T17:23:27.281Z,4.20
2023-01-09T17:26:15.634Z,4.20
2023-01-09T17:28:50.143Z,4.17
2023-01-09T17:31:19.688Z,4.97
2023-01-09T17:33:55.861Z,5.60
2023-01-09T17:36:28.570Z,5.20
2023-01-09T17:38:56.782Z,5.40
2023-01-09T17:41:26.658Z,6.03
2023-01-09T17:43:55.285Z,5.17
2023-01-09T17:46:27.326Z,5.37
2023-01-09T17:48:56.710Z,5.43
2023-01-09T17:51:30.722Z,4.90
2023-01-09T17:54:00.202Z,5.80
2023-01-09T17:56:35.915Z,5.37
2023-01-09T17:59:05.338Z,6.00
2023-01-09T18:01:34.457Z,4.60
2023-01-09T18:04:02.495Z,5.10
2023-01-09T18:06:33.995Z,4.70
2023-01-09T18:09:02.488Z,5.40
2023-01-09T18:11:30.647Z,4.20
2023-01-09T18:13:59.302Z,3.87
2023-01-09T18:16:29.293Z,3.90
2023-01-09T18:18:59.625Z,4.17
2023-01-09T18:21:32.720Z,3.63
2023-01-09T18:24:10.547Z,3.30
2023-01-09T18:26:39.117Z,3.23
2023-01-09T18:29:11.360Z,3.20
2023-01-09T18:31:42.343Z,2.90
2023-01-09T18:34:10.594Z,3.13
2023-01-09T18:36:39.126Z,2.43
2023-01-09T18:39:12.667Z,2.20
2023-01-09T18:41:41.595Z,2.23
2023-01-09T18:44:12.723Z,2.30
2023-01-09T18:46:42.018Z,2.17
2023-01-09T18:49:13.561Z,2.20
2023-01-09T18:51:42.964Z,2.10
2023-01-09T18:54:13.163Z,2.20
2023-01-09T18:56:41.572Z,2.60
2023-01-09T18:59:10.498Z,2.90
2023-01-09T19:01:38.680Z,2.47
2023-01-09T19:04:06.922Z,2.73
2023-01-09T19:06:36.603Z,3.03
2023-01-09T19:09:06.910Z,2.87
2023-01-09T19:11:40.928Z,2.30
2023-01-09T19:14:09.611Z,2.70
2023-01-09T19:19:20.283Z,2.83
2023-01-09T19:21:50.536Z,3.17
2023-01-09T19:24:21.012Z,3.00
2023-01-09T19:26:53.468Z,3.50
2023-01-09T19:29:23.673Z,4.73
2023-01-09T19:31:54.889Z,3.97
2023-01-09T19:34:25.077Z,4.03
2023-01-09T19:36:53.425Z,4.13
2023-01-09T19:39:21.969Z,5.00
2023-01-09T19:41:53.871Z,5.00
2023-01-09T19:44:23.527Z,4.97
2023-01-09T19:46:51.926Z,4.57
2023-01-09T19:49:20.448Z,6.13
2023-01-09T19:51:50.742Z,5.30
2023-01-09T19:54:22.339Z,5.47
2023-01-09T19:56:53.840Z,5.40
2023-01-09T19:59:21.953Z,6.40
2023-01-09T20:01:50.065Z,6.30
2023-01-09T20:04:18.838Z,6.10
2023-01-09T20:06:52.559Z,7.17
2023-01-09T20:09:23.197Z,6.80
2023-01-09T20:11:57.476Z,6.60
2023-01-09T20:14:26.482Z,5.77
2023-01-09T20:17:01.998Z,6.60
2023-01-09T20:19:32.924Z,6.60
2023-01-09T20:22:01.216Z,7.57
2023-01-09T20:24:29.878Z,6.07
2023-01-09T20:27:01.130Z,6.63
2023-01-09T20:29:29.330Z,6.70
2023-01-09T20:31:57.477Z,6.83
2023-01-09T20:34:26.961Z,6.43
2023-01-09T20:36:55.538Z,6.60
2023-01-09T20:39:23.577Z,7.83
2023-01-09T20:41:51.760Z,7.33
2023-01-09T20:44:21.109Z,7.67
2023-01-09T20:46:49.635Z,7.40
2023-01-09T20:49:19.184Z,7.03
2023-01-09T20:51:49.713Z,6.77
2023-01-09T20:54:21.611Z,6.60
2023-01-09T20:56:49.930Z,6.37
2023-01-09T20:59:20.795Z,7.70
2023-01-09T21:01:51.135Z,6.57
2023-01-09T21:04:19.566Z,8.03
2023-01-09T21:06:49.789Z,7.50
2023-01-09T21:09:21.034Z,7.13
2023-01-09T21:11:49.422Z,7.30
2023-01-09T21:14:19.847Z,7.10
2023-01-09T21:16:55.201Z,7.20
2023-01-09T21:19:24.101Z,7.30
2023-01-09T21:21:53.361Z,6.90
2023-01-09T21:24:22.508Z,6.70
2023-01-09T21:26:52.726Z,7.13
2023-01-09T21:29:20.768Z,7.20
2023-01-09T21:31:49.160Z,7.93
2023-01-09T21:34:23.678Z,6.90
2023-01-09T21:36:52.348Z,6.87
2023-01-09T21:39:21.637Z,7.87
2023-01-09T21:42:09.066Z,6.97
2023-01-09T21:44:54.620Z,6.50
2023-01-09T21:47:23.219Z,7.30
2023-01-09T21:49:53.356Z,6.97
2023-01-09T21:52:22.001Z,5.93
2023-01-09T21:54:52.874Z,7.33
2023-01-09T21:57:23.258Z,7.20
2023-01-09T21:59:53.991Z,6.70
2023-01-09T22:02:22.179Z,7.33
2023-01-09T22:04:50.139Z,6.67
2023-01-09T22:07:32.149Z,7.83
2023-01-09T22:10:07.881Z,7.90
2023-01-09T22:12:36.722Z,5.70
2023-01-09T22:15:05.312Z,5.20
2023-01-09T22:17:33.936Z,5.63
2023-01-09T22:20:03.011Z,5.37
2023-01-09T22:22:39.700Z,6.30
2023-01-09T22:25:11.444Z,6.83
2023-01-09T22:27:42.409Z,8.87
2023-01-09T22:30:12.796Z,7.30
2023-01-09T22:32:41.612Z,9.20
2023-01-09T22:35:10.579Z,9.13
2023-01-09T22:37:41.071Z,9.10
2023-01-09T22:40:10.722Z,8.10
2023-01-09T22:42:39.180Z,9.43
2023-01-09T22:45:12.801Z,9.77
2023-01-09T22:47:43.016Z,8.73
2023-01-09T22:50:12.612Z,8.10
2023-01-09T22:52:41.932Z,10.13
2023-01-09T22:55:13.496Z,8.53
2023-01-09T22:57:43.143Z,8.73
2023-01-09T23:00:12.711Z,7.67
2023-01-09T23:02:40.837Z,8.00
2023-01-09T23:05:10.243Z,7.47
2023-01-09T23:07:38.276Z,7.60
2023-01-09T23:10:09.289Z,8.73
2023-01-09T23:12:38.263Z,7.40
2023-01-09T23:15:08.909Z,8.40
2023-01-09T23:17:36.968Z,6.83
2023-01-09T23:20:06.184Z,6.30
2023-01-09T23:22:34.405Z,6.17
2023-01-09T23:25:05.675Z,6.50
2023-01-09T23:27:35.477Z,6.27
2023-01-09T23:30:04.073Z,7.27
2023-01-09T23:32:34.312Z,7.10
2023-01-09T23:35:03.195Z,5.47
2023-01-09T23:37:34.738Z,5.40
2023-01-09T23:40:10.788Z,6.57
2023-01-09T23:43:00.857Z,5.63
2023-01-09T23:45:29.981Z,6.93
2023-01-09T23:47:58.031Z,6.07
2023-01-09T23:50:28.544Z,7.33
2023-01-09T23:52:57.388Z,7.47
2023-01-09T23:55:27.745Z,7.30
2023-01-09T23:57:57.824Z,7.60
